Time;durP1;ratioP1;P1;durP2;ratioP2;P2;SDS_P1;SDS_P2;PMS_P1;PMS_P2;Temp;Humidity;BMP_temperature;BMP_pressure;BME280_temperature;BME280_humidity;BME280_pressure;Samples;Min_cycle;Max_cycle;Signal;HPM_P1;HPM_P2
2023/04/21 00:01:22;;;;;;;33.20;23.80;;;;;;;;;;5063769;28;20063;-81
2023/04/21 00:03:48;;;;;;;31.35;24.40;;;;;;;;;;5035983;28;20056;-81
2023/04/21 00:06:21;;;;;;;31.63;22.92;;;;;;;;;;5036795;28;20052;-81
2023/04/21 00:08:47;;;;;;;32.67;25.00;;;;;;;;;;5048259;28;20492;-81
2023/04/21 00:11:14;;;;;;;28.20;23.52;;;;;;;;;;5051397;28;20044;-81
2023/04/21 00:13:40;;;;;;;35.10;23.80;;;;;;;;;;5035669;28;20656;-81
2023/04/21 00:16:06;;;;;;;31.52;23.48;;;;;;;;;;5034490;28;20052;-81
2023/04/21 00:18:32;;;;;;;31.63;23.92;;;;;;;;;;5047556;28;20052;-81
2023/04/21 00:20:58;;;;;;;34.05;23.95;;;;;;;;;;5026140;28;20037;-81
2023/04/21 00:23:24;;;;;;;30.27;21.83;;;;;;;;;;5047240;28;20481;-81
2023/04/21 00:25:51;;;;;;;29.27;20.67;;;;;;;;;;5051851;28;20041;-81
2023/04/21 00:28:17;;;;;;;28.13;22.48;;;;;;;;;;5047377;28;20056;-81
2023/04/21 00:30:43;;;;;;;31.83;23.65;;;;;;;;;;5030614;28;20079;-81
2023/04/21 00:33:09;;;;;;;29.52;22.60;;;;;;;;;;5032259;28;20045;-81
2023/04/21 00:35:35;;;;;;;29.48;21.10;;;;;;;;;;5046769;28;20044;-80
2023/04/21 00:38:01;;;;;;;27.33;22.50;;;;;;;;;;5045372;28;20037;-81
2023/04/21 00:40:27;;;;;;;31.63;21.20;;;;;;;;;;5048895;28;20041;-81
2023/04/21 00:42:53;;;;;;;24.92;20.90;;;;;;;;;;5048819;28;20488;-81
2023/04/21 00:45:19;;;;;;;25.95;19.58;;;;;;;;;;5028356;28;20029;-81
2023/04/21 00:47:45;;;;;;;25.17;19.90;;;;;;;;;;5035465;28;20325;-81
2023/04/21 00:50:12;;;;;;;28.05;19.35;;;;;;;;;;5029803;28;20044;-81
2023/04/21 00:52:42;;;;;;;27.13;19.45;;;;;;;;;;5032313;28;20071;-81
2023/04/21 00:55:09;;;;;;;26.45;19.23;;;;;;;;;;5048898;28;20053;-81
2023/04/21 00:57:38;;;;;;;26.13;19.45;;;;;;;;;;5048771;28;20056;-80
2023/04/21 01:00:05;;;;;;;25.45;18.27;;;;;;;;;;5034442;28;20496;-81
2023/04/21 01:02:31;;;;;;;29.17;18.45;;;;;;;;;;5051003;28;20515;-80
2023/04/21 01:04:57;;;;;;;25.95;18.63;;;;;;;;;;5042925;28;20045;-81
2023/04/21 01:07:24;;;;;;;28.98;19.17;;;;;;;;;;5029498;28;20080;-79
2023/04/21 01:09:50;;;;;;;29.17;19.17;;;;;;;;;;5027445;28;20044;-78
2023/04/21 01:12:16;;;;;;;23.05;18.52;;;;;;;;;;5028832;28;20524;-78
2023/04/21 01:14:42;;;;;;;27.63;18.88;;;;;;;;;;5026692;28;20049;-78
2023/04/21 01:17:09;;;;;;;25.83;18.05;;;;;;;;;;5027216;28;20047;-78
2023/04/21 01:19:38;;;;;;;25.60;17.00;;;;;;;;;;5036699;28;20090;-78
2023/04/21 01:22:06;;;;;;;23.80;17.08;;;;;;;;;;5045801;28;20488;-78
2023/04/21 01:24:45;;;;;;;26.38;17.25;;;;;;;;;;5030452;28;20068;-79
2023/04/21 01:27:12;;;;;;;22.30;13.68;;;;;;;;;;5029672;28;20056;-80
2023/04/21 01:29:39;;;;;;;25.13;17.77;;;;;;;;;;5048563;28;20045;-80
2023/04/21 01:32:07;;;;;;;28.20;17.70;;;;;;;;;;5055305;28;20127;-80
2023/04/21 01:34:33;;;;;;;25.40;18.13;;;;;;;;;;5039749;28;20044;-80
2023/04/21 01:36:59;;;;;;;25.73;18.40;;;;;;;;;;5044266;28;20043;-80
2023/04/21 01:39:25;;;;;;;28.30;19.60;;;;;;;;;;5056560;28;20040;-80
2023/04/21 01:41:51;;;;;;;25.60;17.65;;;;;;;;;;5070421;28;20105;-80
2023/04/21 01:44:17;;;;;;;28.75;19.80;;;;;;;;;;5035899;28;20037;-80
2023/04/21 01:46:43;;;;;;;24.23;17.70;;;;;;;;;;5039232;28;20496;-80
2023/04/21 01:49:09;;;;;;;25.45;18.40;;;;;;;;;;5065583;28;20041;-80
2023/04/21 01:51:35;;;;;;;29.25;19.63;;;;;;;;;;5051535;28;20098;-80
2023/04/21 01:54:01;;;;;;;26.17;17.98;;;;;;;;;;5051014;28;20037;-80
2023/04/21 01:56:27;;;;;;;30.15;18.40;;;;;;;;;;5050046;28;20103;-80
2023/04/21 01:58:53;;;;;;;24.50;18.33;;;;;;;;;;5066419;28;20558;-80
2023/04/21 02:01:19;;;;;;;29.10;18.90;;;;;;;;;;5029481;28;20083;-79
2023/04/21 02:03:45;;;;;;;28.02;19.88;;;;;;;;;;5047113;28;20060;-80
2023/04/21 02:06:12;;;;;;;29.55;20.67;;;;;;;;;;5051282;28;20564;-80
2023/04/21 02:08:39;;;;;;;28.98;20.23;;;;;;;;;;5046088;28;20049;-80
2023/04/21 02:11:05;;;;;;;24.42;17.63;;;;;;;;;;5051223;28;20044;-80
2023/04/21 02:13:31;;;;;;;25.77;19.10;;;;;;;;;;5046922;28;20041;-80
2023/04/21 02:15:57;;;;;;;26.42;18.70;;;;;;;;;;5026518;28;20389;-80
2023/04/21 02:18:23;;;;;;;24.75;18.58;;;;;;;;;;5048031;28;20037;-80
2023/04/21 02:20:49;;;;;;;24.90;19.15;;;;;;;;;;5028797;28;20045;-80
2023/04/21 02:23:15;;;;;;;27.45;20.05;;;;;;;;;;5045829;28;20044;-80
2023/04/21 02:25:41;;;;;;;28.05;19.75;;;;;;;;;;5048828;28;20473;-80
2023/04/21 02:28:07;;;;;;;27.58;18.85;;;;;;;;;;5044518;28;20079;-80
2023/04/21 02:30:34;;;;;;;26.83;19.75;;;;;;;;;;5053107;28;20048;-80
2023/04/21 02:33:00;;;;;;;24.92;18.02;;;;;;;;;;5044546;28;20044;-80
2023/04/21 02:35:26;;;;;;;26.08;19.05;;;;;;;;;;5059202;28;20056;-80
2023/04/21 02:37:52;;;;;;;27.38;19.50;;;;;;;;;;5038848;28;20049;-80
2023/04/21 02:40:18;;;;;;;26.65;18.15;;;;;;;;;;5050769;28;20103;-81
2023/04/21 02:42:44;;;;;;;27.00;19.15;;;;;;;;;;5042229;28;20047;-81
2023/04/21 02:45:10;;;;;;;22.98;18.42;;;;;;;;;;5041630;28;20037;-81
2023/04/21 02:47:36;;;;;;;28.13;18.45;;;;;;;;;;5050458;28;20052;-81
2023/04/21 02:50:03;;;;;;;25.23;18.60;;;;;;;;;;5035565;28;20033;-80
2023/04/21 02:52:29;;;;;;;25.75;17.10;;;;;;;;;;5052615;28;20049;-80
2023/04/21 02:54:55;;;;;;;28.20;18.50;;;;;;;;;;5052907;28;20051;-80
2023/04/21 02:57:21;;;;;;;25.48;19.02;;;;;;;;;;5040252;28;20049;-81
2023/04/21 02:59:47;;;;;;;23.80;18.17;;;;;;;;;;5054120;28;20053;-80
2023/04/21 03:02:13;;;;;;;25.80;17.10;;;;;;;;;;5037754;28;20397;-80
2023/04/21 03:04:39;;;;;;;25.77;17.92;;;;;;;;;;5054073;28;20045;-80
2023/04/21 03:07:05;;;;;;;30.35;18.95;;;;;;;;;;5033100;28;20041;-81
2023/04/21 03:09:31;;;;;;;25.38;18.67;;;;;;;;;;5042798;28;20488;-81
2023/04/21 03:11:57;;;;;;;23.00;17.38;;;;;;;;;;5031952;28;20048;-80
2023/04/21 03:14:23;;;;;;;23.02;17.75;;;;;;;;;;5058812;28;20158;-80
2023/04/21 03:16:49;;;;;;;24.88;18.05;;;;;;;;;;5063392;28;20119;-81
2023/04/21 03:19:15;;;;;;;26.83;17.75;;;;;;;;;;5040752;28;20076;-81
2023/04/21 03:21:41;;;;;;;25.88;19.20;;;;;;;;;;5062347;28;20060;-81
2023/04/21 03:24:07;;;;;;;27.17;19.02;;;;;;;;;;5030644;28;20048;-81
2023/04/21 03:26:33;;;;;;;24.25;17.90;;;;;;;;;;5053750;28;20041;-81
2023/04/21 03:28:59;;;;;;;26.55;18.55;;;;;;;;;;5047293;28;20044;-81
2023/04/21 03:31:25;;;;;;;26.65;19.70;;;;;;;;;;5036292;28;20060;-82
2023/04/21 03:33:51;;;;;;;25.38;18.15;;;;;;;;;;5053721;28;20392;-81
2023/04/21 03:36:17;;;;;;;28.15;19.95;;;;;;;;;;5065588;28;20059;-81
2023/04/21 03:38:43;;;;;;;28.38;18.70;;;;;;;;;;5047259;28;20032;-81
2023/04/21 03:41:09;;;;;;;28.38;19.58;;;;;;;;;;5047392;28;20049;-81
2023/04/21 03:43:35;;;;;;;27.33;19.02;;;;;;;;;;5053237;28;20052;-81
2023/04/21 03:46:02;;;;;;;23.95;17.90;;;;;;;;;;5035300;28;20071;-81
2023/04/21 03:48:28;;;;;;;26.98;19.58;;;;;;;;;;5035787;28;20053;-81
2023/04/21 03:50:54;;;;;;;25.95;19.63;;;;;;;;;;5072478;28;20041;-81
2023/04/21 03:53:20;;;;;;;28.08;19.98;;;;;;;;;;5066428;28;20041;-79
2023/04/21 03:55:47;;;;;;;24.88;18.63;;;;;;;;;;5054048;28;20083;-78
2023/04/21 03:58:14;;;;;;;28.33;19.75;;;;;;;;;;5033493;28;20493;-81
2023/04/21 04:00:40;;;;;;;25.70;19.05;;;;;;;;;;5033801;28;20054;-80
2023/04/21 04:03:07;;;;;;;24.73;18.75;;;;;;;;;;5027318;28;20037;-80
2023/04/21 04:05:34;;;;;;;26.40;19.63;;;;;;;;;;5046842;28;20080;-80
2023/04/21 04:08:00;;;;;;;25.75;19.17;;;;;;;;;;5032608;28;20099;-81
2023/04/21 04:10:26;;;;;;;30.38;20.17;;;;;;;;;;5048819;28;20045;-80
2023/04/21 04:12:54;;;;;;;26.63;18.75;;;;;;;;;;5030327;28;20067;-81
2023/04/21 04:15:20;;;;;;;27.42;19.73;;;;;;;;;;5048093;28;20559;-81
2023/04/21 04:17:46;;;;;;;26.75;19.30;;;;;;;;;;5027236;28;20059;-80
2023/04/21 04:20:12;;;;;;;29.80;19.35;;;;;;;;;;5029571;28;21800;-80
2023/04/21 04:22:38;;;;;;;26.45;18.40;;;;;;;;;;5046427;28;20106;-80
2023/04/21 04:25:04;;;;;;;25.35;19.35;;;;;;;;;;5040323;28;20041;-81
2023/04/21 04:27:31;;;;;;;26.80;17.75;;;;;;;;;;5046036;28;20436;-80
2023/04/21 04:29:57;;;;;;;25.05;19.02;;;;;;;;;;5050968;28;20037;-80
2023/04/21 04:32:27;;;;;;;29.58;18.98;;;;;;;;;;5044872;28;20057;-80
2023/04/21 04:34:54;;;;;;;28.10;20.55;;;;;;;;;;5027933;28;20399;-80
2023/04/21 04:37:21;;;;;;;25.23;19.52;;;;;;;;;;5028856;28;20080;-80
2023/04/21 04:39:49;;;;;;;28.90;19.15;;;;;;;;;;5031086;28;20064;-80
2023/04/21 04:42:15;;;;;;;24.27;18.63;;;;;;;;;;5047804;28;20087;-80
2023/04/21 04:44:41;;;;;;;27.95;19.45;;;;;;;;;;5030969;28;20110;-80
2023/04/21 04:47:07;;;;;;;24.95;18.50;;;;;;;;;;5045866;28;20044;-80
2023/04/21 04:49:33;;;;;;;28.23;19.73;;;;;;;;;;5029730;28;20043;-80
2023/04/21 04:52:00;;;;;;;23.85;17.48;;;;;;;;;;5029010;28;20041;-80
2023/04/21 04:54:28;;;;;;;28.55;19.35;;;;;;;;;;5051439;28;20040;-80
2023/04/21 04:56:54;;;;;;;26.85;18.30;;;;;;;;;;5046950;28;20075;-80
2023/04/21 04:59:20;;;;;;;25.13;19.40;;;;;;;;;;5046075;28;20369;-79
2023/04/21 05:01:46;;;;;;;23.02;17.67;;;;;;;;;;5033074;28;20045;-80
2023/04/21 05:04:16;;;;;;;25.50;18.42;;;;;;;;;;5050142;28;20037;-80
2023/04/21 05:06:42;;;;;;;23.60;17.58;;;;;;;;;;5032596;28;20400;-80
2023/04/21 05:09:09;;;;;;;26.88;18.90;;;;;;;;;;5028936;28;20459;-80
2023/04/21 05:11:35;;;;;;;24.33;19.08;;;;;;;;;;5053366;28;20045;-80
2023/04/21 05:14:01;;;;;;;26.75;19.25;;;;;;;;;;5044888;28;20032;-80
2023/04/21 05:16:27;;;;;;;24.00;17.45;;;;;;;;;;5028454;28;20056;-80
2023/04/21 05:18:53;;;;;;;24.13;16.83;;;;;;;;;;5057871;28;20036;-80
2023/04/21 05:21:23;;;;;;;20.90;16.98;;;;;;;;;;5044217;28;20032;-80
2023/04/21 05:23:50;;;;;;;23.98;17.40;;;;;;;;;;5047677;28;20105;-81
2023/04/21 05:26:16;;;;;;;27.80;15.80;;;;;;;;;;5034042;28;20459;-81
2023/04/21 05:28:42;;;;;;;23.63;16.30;;;;;;;;;;5048502;28;20044;-80
2023/04/21 05:31:08;;;;;;;25.10;17.42;;;;;;;;;;5054163;28;20515;-80
2023/04/21 05:33:34;;;;;;;22.58;17.30;;;;;;;;;;5059330;28;20048;-80
2023/04/21 05:36:00;;;;;;;25.48;16.55;;;;;;;;;;5055318;28;20044;-80
2023/04/21 05:38:26;;;;;;;25.45;16.85;;;;;;;;;;5041736;28;20045;-80
2023/04/21 05:40:54;;;;;;;26.92;15.68;;;;;;;;;;5051352;28;20041;-80
2023/04/21 05:43:21;;;;;;;22.25;17.45;;;;;;;;;;5058075;28;20041;-80
2023/04/21 05:45:47;;;;;;;21.33;16.67;;;;;;;;;;5058598;28;20053;-80
2023/04/21 05:48:16;;;;;;;22.02;17.80;;;;;;;;;;5067658;28;20041;-80
2023/04/21 05:50:42;;;;;;;22.10;16.10;;;;;;;;;;5052659;28;20127;-79
2023/04/21 05:53:08;;;;;;;21.30;16.02;;;;;;;;;;5056824;28;20556;-79
2023/04/21 05:55:34;;;;;;;23.33;16.67;;;;;;;;;;5059198;28;20055;-79
2023/04/21 05:58:00;;;;;;;22.02;16.02;;;;;;;;;;5031014;28;20500;-80
2023/04/21 06:00:26;;;;;;;22.70;17.20;;;;;;;;;;5019837;28;20054;-79
2023/04/21 06:02:52;;;;;;;23.23;16.75;;;;;;;;;;5024199;28;20095;-79
2023/04/21 06:05:18;;;;;;;20.52;15.85;;;;;;;;;;5034863;28;20041;-79
2023/04/21 06:07:44;;;;;;;22.40;15.80;;;;;;;;;;5009964;28;20041;-79
2023/04/21 06:10:11;;;;;;;21.83;15.73;;;;;;;;;;5024447;28;20045;-79
2023/04/21 06:12:37;;;;;;;24.95;15.70;;;;;;;;;;5034242;28;20512;-79
2023/04/21 06:15:03;;;;;;;23.15;15.25;;;;;;;;;;5010847;28;20037;-79
2023/04/21 06:17:29;;;;;;;19.70;12.90;;;;;;;;;;5037836;28;20088;-79
2023/04/21 06:19:55;;;;;;;21.88;14.55;;;;;;;;;;5014639;28;20493;-79
2023/04/21 06:22:22;;;;;;;20.27;15.02;;;;;;;;;;5042762;28;20396;-79
2023/04/21 06:24:48;;;;;;;21.90;15.68;;;;;;;;;;5019103;28;20041;-79
2023/04/21 06:27:14;;;;;;;22.77;15.90;;;;;;;;;;5016616;28;20261;-80
2023/04/21 06:29:41;;;;;;;23.88;15.85;;;;;;;;;;5035441;28;20048;-81
2023/04/21 06:32:07;;;;;;;19.38;14.00;;;;;;;;;;5016851;28;20081;-80
2023/04/21 06:34:33;;;;;;;21.25;15.00;;;;;;;;;;5015774;28;20393;-80
2023/04/21 06:36:59;;;;;;;19.65;15.27;;;;;;;;;;5041195;28;20033;-80
2023/04/21 06:39:26;;;;;;;19.50;14.30;;;;;;;;;;5044570;28;20098;-80
2023/04/21 06:41:52;;;;;;;20.88;13.63;;;;;;;;;;5030246;28;20045;-79
2023/04/21 06:44:18;;;;;;;19.85;14.15;;;;;;;;;;5018103;28;20052;-79
2023/04/21 06:46:44;;;;;;;24.30;14.70;;;;;;;;;;5018117;28;20079;-79
2023/04/21 06:49:10;;;;;;;15.98;12.18;;;;;;;;;;5052464;28;20041;-80
2023/04/21 06:51:36;;;;;;;20.27;14.38;;;;;;;;;;5022897;28;20577;-80
2023/04/21 06:54:03;;;;;;;19.23;15.10;;;;;;;;;;5036979;28;20064;-80
2023/04/21 06:56:29;;;;;;;20.42;14.35;;;;;;;;;;5038314;28;20053;-80
2023/04/21 06:58:56;;;;;;;20.65;14.60;;;;;;;;;;5044735;28;20052;-79
2023/04/21 07:01:25;;;;;;;19.17;14.38;;;;;;;;;;5059183;28;20059;-80
2023/04/21 07:03:51;;;;;;;22.33;14.32;;;;;;;;;;5044691;28;20048;-84
2023/04/21 07:06:17;;;;;;;19.98;14.77;;;;;;;;;;5036814;28;20170;-80
2023/04/21 07:08:43;;;;;;;20.45;13.85;;;;;;;;;;5054091;28;20041;-80
2023/04/21 07:11:09;;;;;;;21.60;13.05;;;;;;;;;;5054707;28;20043;-79
2023/04/21 07:13:35;;;;;;;18.45;14.23;;;;;;;;;;5067346;28;20128;-79
2023/04/21 07:16:02;;;;;;;20.35;13.43;;;;;;;;;;5052010;28;20036;-80
2023/04/21 07:18:28;;;;;;;18.52;14.25;;;;;;;;;;5046369;28;20044;-80
2023/04/21 07:20:54;;;;;;;19.45;13.43;;;;;;;;;;5035569;28;20124;-82
2023/04/21 07:23:20;;;;;;;19.40;13.82;;;;;;;;;;5036308;28;20041;-79
2023/04/21 07:25:46;;;;;;;20.30;14.30;;;;;;;;;;5041754;28;20041;-79
2023/04/21 07:28:14;;;;;;;19.50;14.77;;;;;;;;;;5063964;28;20067;-79
2023/04/21 07:30:40;;;;;;;19.58;13.27;;;;;;;;;;5057120;28;20049;-80
2023/04/21 07:33:06;;;;;;;23.60;14.80;;;;;;;;;;5056154;28;20045;-80
2023/04/21 07:35:32;;;;;;;21.13;14.68;;;;;;;;;;5070570;28;20087;-80
2023/04/21 07:37:58;;;;;;;23.17;15.15;;;;;;;;;;5050655;28;20072;-80
2023/04/21 07:40:24;;;;;;;18.27;13.00;;;;;;;;;;5063180;28;20127;-80
2023/04/21 07:42:50;;;;;;;19.52;13.45;;;;;;;;;;5053373;28;20464;-80
2023/04/21 07:45:17;;;;;;;17.67;13.50;;;;;;;;;;5035056;28;20073;-81
2023/04/21 07:47:43;;;;;;;18.90;14.50;;;;;;;;;;5035870;28;20045;-80
2023/04/21 07:50:09;;;;;;;21.50;14.52;;;;;;;;;;5064705;28;20090;-80
2023/04/21 07:52:35;;;;;;;18.60;12.43;;;;;;;;;;5056662;28;20090;-80
2023/04/21 07:55:01;;;;;;;20.10;13.65;;;;;;;;;;5043353;28;20097;-80
2023/04/21 07:57:27;;;;;;;18.45;13.95;;;;;;;;;;5058642;28;20059;-81
2023/04/21 07:59:53;;;;;;;18.38;14.07;;;;;;;;;;5045302;28;20510;-80
2023/04/21 08:02:19;;;;;;;19.25;14.18;;;;;;;;;;5038751;28;20063;-80
2023/04/21 08:04:45;;;;;;;19.08;13.38;;;;;;;;;;5041109;28;20040;-80
2023/04/21 08:07:14;;;;;;;21.98;13.63;;;;;;;;;;5035874;28;20194;-80
2023/04/21 08:09:40;;;;;;;20.65;13.48;;;;;;;;;;5034714;28;20052;-80
2023/04/21 08:12:06;;;;;;;17.52;13.02;;;;;;;;;;5067800;28;20128;-80
2023/04/21 08:14:32;;;;;;;20.98;13.38;;;;;;;;;;5045722;28;20048;-80
2023/04/21 08:16:58;;;;;;;18.77;12.82;;;;;;;;;;5055278;28;20049;-80
2023/04/21 08:19:24;;;;;;;19.00;12.75;;;;;;;;;;5058577;28;20404;-80
2023/04/21 08:21:50;;;;;;;17.08;13.82;;;;;;;;;;5038307;28;20048;-80
2023/04/21 08:24:16;;;;;;;18.08;13.70;;;;;;;;;;5053780;28;20373;-80
2023/04/21 08:26:43;;;;;;;19.38;13.18;;;;;;;;;;5033287;28;20040;-80
2023/04/21 08:29:09;;;;;;;17.23;13.43;;;;;;;;;;5038373;28;20045;-80
2023/04/21 08:31:35;;;;;;;20.15;14.48;;;;;;;;;;5037149;28;20056;-80
2023/04/21 08:34:01;;;;;;;20.63;14.80;;;;;;;;;;5064619;28;20038;-80
2023/04/21 08:36:28;;;;;;;18.95;13.90;;;;;;;;;;5035342;28;20139;-80
2023/04/21 08:38:55;;;;;;;21.38;14.13;;;;;;;;;;5039893;28;20044;-80
2023/04/21 08:41:21;;;;;;;20.80;13.63;;;;;;;;;;5054718;28;20041;-80
2023/04/21 08:43:47;;;;;;;19.73;13.73;;;;;;;;;;5050854;28;20052;-80
2023/04/21 08:46:14;;;;;;;22.60;13.57;;;;;;;;;;5068268;28;20044;-80
2023/04/21 08:48:40;;;;;;;16.83;13.23;;;;;;;;;;5044578;28;20045;-80
2023/04/21 08:51:08;;;;;;;20.42;14.00;;;;;;;;;;5039403;28;20045;-80
2023/04/21 08:53:35;;;;;;;16.20;13.18;;;;;;;;;;5057110;28;20580;-80
2023/04/21 08:56:02;;;;;;;19.65;13.60;;;;;;;;;;5068381;28;20059;-80
2023/04/21 08:58:28;;;;;;;20.00;13.30;;;;;;;;;;5042522;28;20053;-80
2023/04/21 09:00:54;;;;;;;17.08;13.85;;;;;;;;;;5051837;28;20049;-80
2023/04/21 09:03:22;;;;;;;18.23;13.90;;;;;;;;;;5036538;28;20052;-80
2023/04/21 09:05:57;;;;;;;22.45;14.90;;;;;;;;;;5055166;28;20040;-80
2023/04/21 09:08:24;;;;;;;20.30;13.70;;;;;;;;;;5052397;28;20101;-80
2023/04/21 09:10:51;;;;;;;19.38;14.63;;;;;;;;;;5060406;28;20527;-80
2023/04/21 09:13:17;;;;;;;19.13;14.95;;;;;;;;;;5061180;28;20037;-80
2023/04/21 09:15:45;;;;;;;21.15;15.07;;;;;;;;;;5048260;28;20045;-81
2023/04/21 09:18:15;;;;;;;18.83;13.63;;;;;;;;;;5048641;28;20044;-81
2023/04/21 09:20:42;;;;;;;19.92;13.70;;;;;;;;;;5056828;28;20135;-81
2023/04/21 09:23:09;;;;;;;18.13;15.20;;;;;;;;;;5054121;28;20052;-81
2023/04/21 09:25:38;;;;;;;18.40;14.18;;;;;;;;;;5032673;28;20071;-81
2023/04/21 09:28:07;;;;;;;18.23;14.18;;;;;;;;;;5057204;28;20041;-81
2023/04/21 09:30:35;;;;;;;21.88;13.57;;;;;;;;;;5037397;28;20052;-80
2023/04/21 09:33:01;;;;;;;18.40;14.45;;;;;;;;;;5053995;28;20056;-80
2023/04/21 09:35:28;;;;;;;16.75;13.93;;;;;;;;;;5034248;28;20044;-80
2023/04/21 09:37:54;;;;;;;16.77;14.10;;;;;;;;;;5039753;28;20036;-81
2023/04/21 09:40:20;;;;;;;18.50;14.50;;;;;;;;;;5069211;28;20076;-81
2023/04/21 09:42:46;;;;;;;19.85;14.38;;;;;;;;;;5033188;28;20453;-81
2023/04/21 09:45:16;;;;;;;20.80;14.70;;;;;;;;;;5051404;28;20049;-81
2023/04/21 09:47:42;;;;;;;16.33;12.75;;;;;;;;;;5034944;28;20091;-80
2023/04/21 09:50:11;;;;;;;17.02;13.80;;;;;;;;;;5055848;28;20500;-80
2023/04/21 09:52:43;;;;;;;18.17;14.35;;;;;;;;;;5051595;28;20037;-80
2023/04/21 09:55:13;;;;;;;19.35;14.50;;;;;;;;;;5042192;28;20044;-80
2023/04/21 09:57:40;;;;;;;17.58;13.48;;;;;;;;;;5032944;28;20049;-80
2023/04/21 10:00:08;;;;;;;16.00;13.38;;;;;;;;;;5041016;28;20075;-80
2023/04/21 10:02:35;;;;;;;19.85;15.02;;;;;;;;;;5051697;28;20075;-80
2023/04/21 10:05:05;;;;;;;18.27;14.07;;;;;;;;;;5040094;28;20136;-80
2023/04/21 10:07:31;;;;;;;22.05;14.00;;;;;;;;;;5068229;28;20049;-80
2023/04/21 10:09:58;;;;;;;17.45;13.80;;;;;;;;;;5047355;28;20059;-80
2023/04/21 10:12:25;;;;;;;19.00;13.93;;;;;;;;;;5044776;28;20076;-80
2023/04/21 10:14:52;;;;;;;18.95;12.98;;;;;;;;;;5046700;28;20060;-80
2023/04/21 10:17:22;;;;;;;16.38;12.90;;;;;;;;;;5050837;28;20133;-80
2023/04/21 10:19:58;;;;;;;15.90;13.52;;;;;;;;;;5047031;28;20053;-80
2023/04/21 10:22:27;;;;;;;19.60;14.15;;;;;;;;;;5057343;28;20465;-80
2023/04/21 10:24:57;;;;;;;16.90;12.35;;;;;;;;;;5074998;28;20079;-81
2023/04/21 10:27:34;;;;;;;17.85;12.95;;;;;;;;;;5040419;28;20056;-80
2023/04/21 10:30:00;;;;;;;17.05;13.85;;;;;;;;;;5046409;28;20048;-81
2023/04/21 10:32:44;;;;;;;18.40;13.07;;;;;;;;;;5060357;28;20519;-81
2023/04/21 10:35:14;;;;;;;14.60;12.60;;;;;;;;;;5062772;28;21228;-80
2023/04/21 10:37:43;;;;;;;17.35;13.00;;;;;;;;;;5055131;28;20033;-79
2023/04/21 10:40:34;;;;;;;16.23;13.18;;;;;;;;;;5054134;28;20047;-80
2023/04/21 10:43:01;;;;;;;17.77;12.95;;;;;;;;;;5034851;28;20048;-80
2023/04/21 10:45:28;;;;;;;17.15;12.82;;;;;;;;;;5042397;28;20064;-80
2023/04/21 10:47:54;;;;;;;17.65;13.13;;;;;;;;;;5057097;28;20055;-79
2023/04/21 10:50:24;;;;;;;17.25;12.88;;;;;;;;;;5063378;28;20373;-82
2023/04/21 10:52:58;;;;;;;18.88;13.60;;;;;;;;;;5064122;28;20436;-80
2023/04/21 10:55:28;;;;;;;15.77;12.68;;;;;;;;;;5042413;28;20041;-80
2023/04/21 10:57:54;;;;;;;16.85;12.45;;;;;;;;;;5061804;28;20158;-80
2023/04/21 11:00:22;;;;;;;16.65;13.15;;;;;;;;;;5057045;28;20067;-80
2023/04/21 11:02:58;;;;;;;16.52;13.18;;;;;;;;;;5058953;28;20540;-80
2023/04/21 11:05:29;;;;;;;17.42;12.30;;;;;;;;;;5041506;28;20501;-80
2023/04/21 11:08:02;;;;;;;19.55;14.02;;;;;;;;;;5050574;28;20059;-80
2023/04/21 11:10:28;;;;;;;;;;;;;;;;;;5062716;28;20454;-80
2023/04/21 11:12:57;;;;;;;17.38;13.25;;;;;;;;;;5059653;28;19924;-80
2023/04/21 11:15:23;;;;;;;16.80;12.20;;;;;;;;;;5039093;28;20163;-79
2023/04/21 11:17:49;;;;;;;18.15;12.52;;;;;;;;;;5035461;28;20516;-79
2023/04/21 11:20:15;;;;;;;19.15;11.65;;;;;;;;;;5046267;28;20071;-78
2023/04/21 11:22:41;;;;;;;15.48;12.32;;;;;;;;;;5067906;28;20089;-79
2023/04/21 11:25:16;;;;;;;19.02;12.60;;;;;;;;;;5071993;28;20438;-78
2023/04/21 11:27:42;;;;;;;15.48;12.02;;;;;;;;;;5043463;28;20091;-79
2023/04/21 11:30:09;;;;;;;16.08;12.18;;;;;;;;;;5055524;28;20049;-78
2023/04/21 11:32:35;;;;;;;16.15;12.40;;;;;;;;;;5075445;28;20036;-78
2023/04/21 11:35:01;;;;;;;15.13;11.57;;;;;;;;;;5062950;28;20068;-79
2023/04/21 11:37:27;;;;;;;15.38;12.93;;;;;;;;;;5060719;28;20036;-80
2023/04/21 11:39:57;;;;;;;18.40;13.18;;;;;;;;;;5076935;28;20498;-80
2023/04/21 11:42:23;;;;;;;16.20;12.25;;;;;;;;;;5062059;28;20126;-80
2023/04/21 11:44:49;;;;;;;14.98;12.45;;;;;;;;;;5044254;28;20041;-79
2023/04/21 11:47:19;;;;;;;16.55;12.40;;;;;;;;;;5049414;28;20131;-79
2023/04/21 11:49:51;;;;;;;16.48;12.10;;;;;;;;;;5054347;28;20123;-79
2023/04/21 11:52:27;;;;;;;19.65;12.65;;;;;;;;;;5040518;28;20053;-80
2023/04/21 11:54:55;;;;;;;19.23;13.50;;;;;;;;;;5073933;28;20049;-80
2023/04/21 11:57:22;;;;;;;21.33;13.00;;;;;;;;;;5038489;28;20118;-81
2023/04/21 11:59:48;;;;;;;18.85;12.65;;;;;;;;;;5054148;28;20531;-81
2023/04/21 12:02:21;;;;;;;16.17;13.02;;;;;;;;;;5067031;28;20047;-78
2023/04/21 12:04:56;;;;;;;14.25;12.40;;;;;;;;;;5035531;28;20048;-79
2023/04/21 12:07:22;;;;;;;14.57;12.73;;;;;;;;;;5054600;28;20119;-78
2023/04/21 12:09:51;;;;;;;19.17;13.18;;;;;;;;;;5034982;28;20469;-78
2023/04/21 12:12:17;;;;;;;18.50;12.45;;;;;;;;;;5051101;28;20102;-77
2023/04/21 12:14:43;;;;;;;14.18;11.77;;;;;;;;;;5060355;28;20033;-78
2023/04/21 12:17:10;;;;;;;18.05;12.55;;;;;;;;;;5066068;28;20110;-77
2023/04/21 12:19:38;;;;;;;16.27;12.57;;;;;;;;;;5050139;28;20168;-77
2023/04/21 12:22:22;;;;;;;17.02;12.27;;;;;;;;;;5040381;28;20053;-78
2023/04/21 12:24:48;;;;;;;18.50;12.70;;;;;;;;;;5039186;28;20053;-76
2023/04/21 12:27:14;;;;;;;16.52;12.85;;;;;;;;;;5071600;28;20078;-75
2023/04/21 12:29:41;;;;;;;17.63;12.45;;;;;;;;;;5034149;28;20539;-77
2023/04/21 12:32:08;;;;;;;15.60;11.40;;;;;;;;;;5068387;28;20048;-78
2023/04/21 12:34:35;;;;;;;13.90;11.95;;;;;;;;;;5052290;28;20048;-76
2023/04/21 12:37:01;;;;;;;16.83;11.85;;;;;;;;;;5058646;28;20063;-76
2023/04/21 12:39:28;;;;;;;16.92;12.55;;;;;;;;;;5034906;28;20037;-76
2023/04/21 12:41:54;;;;;;;17.90;12.50;;;;;;;;;;5056064;28;20083;-76
2023/04/21 12:44:20;;;;;;;17.73;12.38;;;;;;;;;;5051889;28;20129;-76
2023/04/21 12:46:48;;;;;;;16.85;11.98;;;;;;;;;;5034644;28;20053;-76
2023/04/21 12:49:15;;;;;;;16.83;11.95;;;;;;;;;;5036081;28;20512;-75
2023/04/21 12:51:41;;;;;;;16.02;11.70;;;;;;;;;;5042479;28;20056;-76
2023/04/21 12:54:07;;;;;;;14.95;11.55;;;;;;;;;;5042471;28;20044;-76
2023/04/21 12:56:33;;;;;;;19.02;12.35;;;;;;;;;;5043712;28;20048;-75
2023/04/21 12:58:59;;;;;;;19.42;12.05;;;;;;;;;;5040118;28;20135;-76
2023/04/21 13:01:25;;;;;;;15.80;12.88;;;;;;;;;;5032712;28;20488;-75
2023/04/21 13:03:51;;;;;;;13.43;11.75;;;;;;;;;;5032560;28;20045;-76
2023/04/21 13:06:17;;;;;;;13.60;12.18;;;;;;;;;;5054714;28;20124;-80
2023/04/21 13:08:44;;;;;;;17.45;12.48;;;;;;;;;;5044653;28;20469;-79
2023/04/21 13:11:10;;;;;;;15.00;12.23;;;;;;;;;;5031512;28;20051;-79
2023/04/21 13:13:36;;;;;;;16.70;12.02;;;;;;;;;;5053262;28;20143;-80
2023/04/21 13:16:02;;;;;;;15.38;11.88;;;;;;;;;;5025203;28;20040;-79
2023/04/21 13:18:28;;;;;;;17.17;12.57;;;;;;;;;;5031202;28;20051;-79
2023/04/21 13:20:54;;;;;;;18.38;11.85;;;;;;;;;;5053693;28;20041;-80
2023/04/21 13:23:20;;;;;;;18.70;12.63;;;;;;;;;;5046525;28;20507;-80
2023/04/21 13:25:46;;;;;;;15.88;13.90;;;;;;;;;;5051489;28;20125;-80
2023/04/21 13:28:13;;;;;;;17.45;14.57;;;;;;;;;;5028177;28;20119;-80
2023/04/21 13:30:39;;;;;;;20.23;16.27;;;;;;;;;;5056742;28;20453;-79
2023/04/21 13:33:05;;;;;;;21.58;15.27;;;;;;;;;;5061996;28;20044;-79
2023/04/21 13:35:31;;;;;;;16.80;14.77;;;;;;;;;;5058389;28;20472;-79
2023/04/21 13:37:58;;;;;;;17.13;15.18;;;;;;;;;;5048708;28;20052;-79
2023/04/21 13:40:24;;;;;;;19.83;15.23;;;;;;;;;;5037529;28;20041;-79
2023/04/21 13:42:50;;;;;;;17.88;14.85;;;;;;;;;;5053735;28;20052;-80
2023/04/21 13:45:16;;;;;;;17.67;15.32;;;;;;;;;;5051044;28;20053;-80
2023/04/21 13:47:42;;;;;;;18.33;15.82;;;;;;;;;;5062062;28;20041;-82
2023/04/21 13:50:09;;;;;;;19.98;16.23;;;;;;;;;;5053676;28;20049;-80
2023/04/21 13:52:35;;;;;;;20.83;16.35;;;;;;;;;;5045100;28;20052;-80
2023/04/21 13:55:02;;;;;;;24.23;16.48;;;;;;;;;;5042633;28;20041;-80
2023/04/21 13:57:28;;;;;;;18.33;15.60;;;;;;;;;;5036915;28;20049;-80
2023/04/21 13:59:54;;;;;;;21.13;15.55;;;;;;;;;;5032657;28;20049;-80
2023/04/21 14:02:22;;;;;;;20.52;16.30;;;;;;;;;;5043095;28;20045;-80
2023/04/21 14:04:48;;;;;;;20.00;15.38;;;;;;;;;;5052976;28;20053;-80
2023/04/21 14:07:16;;;;;;;20.95;15.55;;;;;;;;;;5058922;28;20037;-80
2023/04/21 14:09:43;;;;;;;23.45;15.60;;;;;;;;;;5043073;28;20496;-80
2023/04/21 14:12:10;;;;;;;20.98;16.08;;;;;;;;;;5033280;28;20051;-80
2023/04/21 14:14:36;;;;;;;19.17;15.85;;;;;;;;;;5049555;28;20140;-79
2023/04/21 14:17:02;;;;;;;17.92;15.30;;;;;;;;;;5041196;28;20041;-80